Time;durP1;ratioP1;P1;durP2;ratioP2;P2;SDS_P1;SDS_P2;PMS_P1;PMS_P2;Temp;Humidity;BMP_temperature;BMP_pressure;BME280_temperature;BME280_humidity;BME280_pressure;Samples;Min_cycle;Max_cycle;Signal;HPM_P1;HPM_P2
2022/10/28 00:01:17;;;;;;;20.52;9.55;;;14.60;99.90;;;;;;6211360;23;20084;-82
2022/10/28 00:03:46;;;;;;;17.42;9.07;;;14.50;99.90;;;;;;6211792;23;20020;-82
2022/10/28 00:06:15;;;;;;;17.80;9.38;;;14.50;99.90;;;;;;6185182;23;20384;-82
2022/10/28 00:08:40;;;;;;;17.00;10.23;;;14.50;99.90;;;;;;6185199;23;20016;-82
2022/10/28 00:11:15;;;;;;;17.55;9.15;;;14.50;99.90;;;;;;6211975;23;20022;-82
2022/10/28 00:13:42;;;;;;;20.92;10.02;;;14.50;99.90;;;;;;6211620;23;20091;-82
2022/10/28 00:16:17;;;;;;;16.35;9.80;;;14.60;99.90;;;;;;6211371;23;20092;-82
2022/10/28 00:18:43;;;;;;;18.08;10.20;;;14.60;99.90;;;;;;6185689;23;20429;-82
2022/10/28 00:21:14;;;;;;;17.70;9.77;;;14.60;99.90;;;;;;6184680;23;20017;-82
2022/10/28 00:23:41;;;;;;;20.35;9.73;;;14.60;99.90;;;;;;6159598;23;20083;-82
2022/10/28 00:26:17;;;;;;;19.10;10.13;;;14.60;99.90;;;;;;6185059;23;20013;-82
2022/10/28 00:28:55;;;;;;;22.92;10.55;;;14.60;99.90;;;;;;6184821;23;20016;-82
2022/10/28 00:31:23;;;;;;;16.92;9.73;;;14.60;99.90;;;;;;6209714;23;20024;-82
2022/10/28 00:33:49;;;;;;;18.23;9.57;;;14.70;99.90;;;;;;6184870;23;20098;-82
2022/10/28 00:36:20;;;;;;;19.63;10.07;;;14.60;99.90;;;;;;6184834;23;20013;-82
2022/10/28 00:38:48;;;;;;;18.63;9.63;;;14.60;99.90;;;;;;6184099;23;20020;-82
2022/10/28 00:41:23;;;;;;;18.75;9.82;;;14.60;99.90;;;;;;6160015;23;20664;-82
2022/10/28 00:43:52;;;;;;;16.95;9.80;;;14.70;99.90;;;;;;6184945;23;20021;-82
2022/10/28 00:46:20;;;;;;;20.08;9.55;;;14.70;99.90;;;;;;6184467;23;20079;-82
2022/10/28 00:48:49;;;;;;;19.10;8.88;;;14.60;99.90;;;;;;6211804;23;20047;-82
2022/10/28 00:51:17;;;;;;;17.27;9.50;;;14.60;99.90;;;;;;6184350;23;20066;-83
2022/10/28 00:53:47;;;;;;;18.70;9.88;;;14.60;99.90;;;;;;6211597;23;20075;-82
2022/10/28 00:56:14;;;;;;;20.65;10.55;;;14.60;99.90;;;;;;6211699;23;20773;-82
2022/10/28 00:58:40;;;;;;;18.98;10.75;;;14.70;99.90;;;;;;6210894;23;20016;-82
2022/10/28 01:01:06;;;;;;;17.63;9.82;;;14.70;99.90;;;;;;6210375;23;20020;-82
2022/10/28 01:03:32;;;;;;;19.13;9.95;;;14.70;99.90;;;;;;6184776;23;20067;-82
2022/10/28 01:05:58;;;;;;;17.10;9.70;;;14.70;99.90;;;;;;6211474;23;20011;-83
2022/10/28 01:08:23;;;;;;;18.83;9.57;;;14.70;99.90;;;;;;6211540;23;20009;-82
2022/10/28 01:11:04;;;;;;;18.15;10.05;;;14.70;99.90;;;;;;6211773;23;20028;-83
2022/10/28 01:13:33;;;;;;;17.25;9.65;;;14.70;99.90;;;;;;6185058;23;20019;-82
2022/10/28 01:15:59;;;;;;;22.27;11.13;;;14.70;99.90;;;;;;6210965;23;20016;-82
2022/10/28 01:18:35;;;;;;;19.85;11.27;;;14.70;99.90;;;;;;6184954;23;20024;-82
2022/10/28 01:21:54;;;;;;;19.00;11.48;;;14.70;99.90;;;;;;6184535;23;20008;-82
2022/10/28 01:24:35;;;;;;;24.55;11.82;;;14.70;99.90;;;;;;6061024;23;20467;-82
2022/10/28 01:27:38;;;;;;;18.73;11.52;;;14.70;99.90;;;;;;6061184;23;20018;-83
2022/10/28 01:30:13;;;;;;;22.92;11.75;;;14.70;99.90;;;;;;6060395;23;20715;-83
2022/10/28 01:32:54;;;;;;;19.48;11.73;;;14.70;99.90;;;;;;6060951;23;20384;-82
2022/10/28 01:35:39;;;;;;;20.52;11.57;;;14.70;99.90;;;;;;6036794;23;20038;-82
2022/10/28 01:38:22;;;;;;;20.60;11.63;;;14.70;99.90;;;;;;6036433;23;20063;-82
2022/10/28 01:40:59;;;;;;;24.40;12.27;;;14.70;99.90;;;;;;6036322;23;20023;-82
2022/10/28 01:43:52;;;;;;;19.00;12.13;;;14.70;99.90;;;;;;6059648;23;20018;-82
2022/10/28 01:46:25;;;;;;;20.00;11.95;;;14.70;99.90;;;;;;6036915;23;20019;-82
2022/10/28 01:49:04;;;;;;;24.70;12.73;;;14.70;99.90;;;;;;6060542;23;20086;-82
2022/10/28 01:51:39;;;;;;;19.45;11.18;;;14.70;99.90;;;;;;6060176;23;20023;-82
2022/10/28 01:54:07;;;;;;;19.67;10.95;;;14.70;99.90;;;;;;6036902;23;20018;-82
2022/10/28 01:56:40;;;;;;;21.88;12.50;;;14.70;99.90;;;;;;6060784;23;20015;-82
2022/10/28 01:59:10;;;;;;;23.95;12.75;;;14.70;99.90;;;;;;6175476;23;20017;-82
2022/10/28 02:01:36;;;;;;;23.10;12.75;;;14.70;99.90;;;;;;6209388;23;20044;-82
2022/10/28 02:04:02;;;;;;;24.17;12.35;;;14.70;99.90;;;;;;6210348;23;20016;-82
2022/10/28 02:06:30;;;;;;;25.38;11.43;;;14.70;99.90;;;;;;6210434;23;20465;-82
2022/10/28 02:09:37;;;;;;;24.63;12.45;;;14.70;99.90;;;;;;6184197;23;20008;-82
2022/10/28 02:12:16;;;;;;;26.13;13.55;;;14.80;99.90;;;;;;6035801;23;20194;-82
2022/10/28 02:15:02;;;;;;;23.13;12.30;;;14.70;99.90;;;;;;6060578;23;20082;-82
2022/10/28 02:17:43;;;;;;;19.30;11.55;;;14.70;99.90;;;;;;6036135;23;20019;-82
2022/10/28 02:20:36;;;;;;;21.73;12.88;;;14.60;99.90;;;;;;6013044;23;20021;-82
2022/10/28 02:23:13;;;;;;;24.48;12.77;;;14.60;99.90;;;;;;6060337;23;20476;-82
2022/10/28 02:25:57;;;;;;;21.67;12.55;;;14.50;99.90;;;;;;6060443;23;20023;-82
2022/10/28 02:28:35;;;;;;;20.77;12.52;;;14.40;99.90;;;;;;6060116;23;20012;-82
2022/10/28 02:31:15;;;;;;;23.35;13.73;;;14.40;99.90;;;;;;6036790;23;20019;-82
2022/10/28 02:33:43;;;;;;;21.65;12.50;;;14.30;99.90;;;;;;6036718;23;20026;-82
2022/10/28 02:36:15;;;;;;;22.20;12.50;;;14.30;99.90;;;;;;6060523;23;20610;-82
2022/10/28 02:38:49;;;;;;;21.10;12.32;;;14.20;99.90;;;;;;6060549;23;20492;-82
2022/10/28 02:41:26;;;;;;;19.63;11.68;;;14.20;99.90;;;;;;6036057;23;20119;-82
2022/10/28 02:43:55;;;;;;;23.27;12.50;;;14.10;99.90;;;;;;6060642;23;20115;-82
2022/10/28 02:46:23;;;;;;;18.50;11.20;;;14.10;99.90;;;;;;6040256;23;20047;-82
2022/10/28 02:48:54;;;;;;;22.83;12.15;;;14.00;99.90;;;;;;6184029;23;20016;-82
2022/10/28 02:51:39;;;;;;;21.63;12.13;;;13.90;99.90;;;;;;6183985;23;20451;-82
2022/10/28 02:54:08;;;;;;;;;;;13.90;99.90;;;;;;6211454;23;20016;-82
2022/10/28 02:56:42;;;;;;;18.65;11.55;;;13.80;99.90;;;;;;6212058;23;19912;-82
2022/10/28 02:59:10;;;;;;;;;;;13.80;99.90;;;;;;6213239;23;20036;-82
2022/10/28 03:01:36;;;;;;;23.67;11.55;;;13.70;99.90;;;;;;6186033;23;19951;-82
2022/10/28 03:04:02;;;;;;;21.58;11.82;;;13.70;99.90;;;;;;6212534;23;20114;-82
2022/10/28 03:06:27;;;;;;;19.85;11.75;;;13.60;99.90;;;;;;6186038;23;20028;-82
2022/10/28 03:08:53;;;;;;;17.17;10.93;;;13.60;99.90;;;;;;6212666;23;20040;-81
2022/10/28 03:11:19;;;;;;;22.10;11.82;;;13.60;99.90;;;;;;6185452;23;20012;-82
2022/10/28 03:13:44;;;;;;;20.05;11.43;;;13.60;99.90;;;;;;6186147;23;20064;-82
2022/10/28 03:16:10;;;;;;;18.23;10.73;;;13.50;99.90;;;;;;6185974;23;20056;-82
2022/10/28 03:18:36;;;;;;;18.67;11.00;;;13.50;99.90;;;;;;6213016;23;20080;-82
2022/10/28 03:21:01;;;;;;;19.05;11.43;;;13.40;99.90;;;;;;6212065;23;20017;-82
2022/10/28 03:23:27;;;;;;;19.05;11.20;;;13.40;99.90;;;;;;6212335;23;20019;-82
2022/10/28 03:25:52;;;;;;;17.65;11.40;;;13.40;99.90;;;;;;6211939;23;20477;-82
2022/10/28 03:28:18;;;;;;;21.85;11.50;;;13.30;99.90;;;;;;6212561;23;20013;-82
2022/10/28 03:30:44;;;;;;;19.67;10.02;;;13.30;99.90;;;;;;6210891;23;20017;-82
2022/10/28 03:33:09;;;;;;;17.23;10.32;;;13.30;99.90;;;;;;6185445;23;20016;-82
2022/10/28 03:35:35;;;;;;;18.85;8.63;;;13.20;99.90;;;;;;6210363;23;20021;-82
2022/10/28 03:38:01;;;;;;;14.80;8.63;;;13.20;99.90;;;;;;6185421;23;20249;-82
2022/10/28 03:40:26;;;;;;;16.38;9.10;;;13.20;99.90;;;;;;6185113;23;20032;-82
2022/10/28 03:42:52;;;;;;;18.65;9.43;;;13.10;99.90;;;;;;6212142;23;20063;-82
2022/10/28 03:45:18;;;;;;;19.02;8.07;;;13.10;99.90;;;;;;6185479;23;20012;-82
2022/10/28 03:47:43;;;;;;;18.88;9.82;;;13.00;99.90;;;;;;6212425;23;20013;-82
2022/10/28 03:50:09;;;;;;;17.70;10.00;;;13.00;99.90;;;;;;6184911;23;20433;-82
2022/10/28 03:52:35;;;;;;;23.02;11.65;;;13.00;99.90;;;;;;6160895;23;20016;-82
2022/10/28 03:55:00;;;;;;;18.98;10.95;;;13.00;99.90;;;;;;6184462;23;20016;-82
2022/10/28 03:57:30;;;;;;;19.30;10.82;;;12.90;99.90;;;;;;6212227;23;20067;-82
2022/10/28 03:59:55;;;;;;;23.45;12.65;;;12.90;99.90;;;;;;6212086;23;20013;-82
2022/10/28 04:02:21;;;;;;;22.77;12.45;;;12.90;99.90;;;;;;6185234;23;20504;-82
2022/10/28 04:04:47;;;;;;;27.33;13.88;;;12.90;99.90;;;;;;6184968;23;20066;-82
2022/10/28 04:07:12;;;;;;;25.08;13.95;;;12.90;99.90;;;;;;6160159;23;20039;-82
2022/10/28 04:09:38;;;;;;;23.83;13.32;;;12.90;99.90;;;;;;6184825;23;20044;-82
2022/10/28 04:12:05;;;;;;;20.48;11.98;;;12.80;99.90;;;;;;6209364;23;20043;-82
2022/10/28 04:14:31;;;;;;;19.13;11.45;;;12.80;99.90;;;;;;6185398;23;20016;-82
2022/10/28 04:16:57;;;;;;;22.60;12.60;;;12.80;99.90;;;;;;6211517;23;20023;-82
2022/10/28 04:19:23;;;;;;;23.65;11.52;;;12.80;99.90;;;;;;6211265;23;20013;-82
2022/10/28 04:21:48;;;;;;;21.45;13.40;;;12.80;99.90;;;;;;6211589;23;20024;-82
2022/10/28 04:24:14;;;;;;;20.35;12.13;;;12.80;99.90;;;;;;6184517;23;20571;-82
2022/10/28 04:26:39;;;;;;;18.92;10.82;;;12.70;99.90;;;;;;6211415;23;20460;-82
2022/10/28 04:29:05;;;;;;;19.40;11.32;;;12.70;99.90;;;;;;6212121;23;20111;-82
2022/10/28 04:31:31;;;;;;;20.95;11.18;;;12.70;99.90;;;;;;6211434;23;20468;-82
2022/10/28 04:33:56;;;;;;;18.65;11.38;;;12.70;99.90;;;;;;6211146;23;20021;-82
2022/10/28 04:36:22;;;;;;;25.23;11.77;;;12.60;99.90;;;;;;6184330;23;20027;-82
2022/10/28 04:38:50;;;;;;;22.23;12.50;;;12.60;99.90;;;;;;6183749;23;20012;-82
2022/10/28 04:41:16;;;;;;;21.00;11.68;;;12.60;99.90;;;;;;6211780;23;20008;-82
2022/10/28 04:43:42;;;;;;;22.98;12.57;;;12.60;99.90;;;;;;6185218;23;20016;-82
2022/10/28 04:46:08;;;;;;;23.52;13.80;;;12.60;99.90;;;;;;6182652;23;20020;-82
2022/10/28 04:48:34;;;;;;;23.92;13.20;;;12.60;99.90;;;;;;6183753;23;20448;-82
2022/10/28 04:51:00;;;;;;;23.27;13.93;;;12.50;99.90;;;;;;6184394;23;20020;-82
2022/10/28 04:53:26;;;;;;;22.92;13.05;;;12.60;99.90;;;;;;6209524;23;20529;-82
2022/10/28 04:55:57;;;;;;;22.80;13.05;;;12.50;99.90;;;;;;6211401;23;20013;-82
2022/10/28 04:58:23;;;;;;;21.02;12.25;;;12.50;99.90;;;;;;6210828;23;20028;-81
2022/10/28 05:00:48;;;;;;;22.60;13.35;;;12.50;99.90;;;;;;6210196;23;20016;-82
2022/10/28 05:03:14;;;;;;;26.58;14.45;;;12.50;99.90;;;;;;6183427;23;20471;-82
2022/10/28 05:05:40;;;;;;;22.65;13.18;;;12.50;99.90;;;;;;6159883;23;20376;-82
2022/10/28 05:08:06;;;;;;;23.45;12.40;;;12.50;99.90;;;;;;6186255;23;20443;-82
2022/10/28 05:10:32;;;;;;;20.25;12.02;;;12.40;99.90;;;;;;6185848;23;20445;-82
2022/10/28 05:12:57;;;;;;;20.10;13.68;;;12.40;99.90;;;;;;6210205;23;20012;-83
2022/10/28 05:15:25;;;;;;;20.00;12.18;;;12.40;99.90;;;;;;6161430;23;20427;-83
2022/10/28 05:17:51;;;;;;;27.15;13.60;;;12.40;99.90;;;;;;6162203;23;20012;-82
2022/10/28 05:20:18;;;;;;;22.25;12.27;;;12.40;99.90;;;;;;6161933;23;20016;-82
2022/10/28 05:22:49;;;;;;;19.42;12.95;;;12.30;99.90;;;;;;6212002;23;20023;-83
2022/10/28 05:25:16;;;;;;;24.25;12.43;;;12.60;99.90;;;;;;6212994;23;20044;-82
2022/10/28 05:27:42;;;;;;;19.48;12.88;;;12.30;99.90;;;;;;6186063;23;20028;-82
2022/10/28 05:30:09;;;;;;;25.08;14.07;;;12.30;99.90;;;;;;6185598;23;20013;-83
2022/10/28 05:32:35;;;;;;;21.65;12.18;;;12.30;99.90;;;;;;6212975;23;20070;-83
2022/10/28 05:35:00;;;;;;;25.42;12.30;;;12.30;99.90;;;;;;6211299;23;20016;-82
2022/10/28 05:37:26;;;;;;;26.02;12.63;;;12.50;99.90;;;;;;6160603;23;21095;-82
2022/10/28 05:39:52;;;;;;;22.17;12.43;;;12.30;99.90;;;;;;6212356;23;20609;-83
2022/10/28 05:42:17;;;;;;;20.75;11.65;;;12.30;99.90;;;;;;6210319;23;20425;-83
2022/10/28 05:44:43;;;;;;;20.88;11.63;;;12.20;99.90;;;;;;6184440;23;20028;-82
2022/10/28 05:47:09;;;;;;;20.15;11.38;;;12.20;99.90;;;;;;6184294;23;20345;-82
2022/10/28 05:49:34;;;;;;;23.90;12.30;;;12.20;99.90;;;;;;6183825;23;20456;-82
2022/10/28 05:52:00;;;;;;;19.75;12.43;;;12.20;99.90;;;;;;6183852;23;20493;-85
2022/10/28 05:54:26;;;;;;;23.77;12.82;;;12.20;99.90;;;;;;6211371;23;20080;-82
2022/10/28 05:56:51;;;;;;;20.02;11.25;;;12.30;99.90;;;;;;6184010;23;20248;-81
2022/10/28 05:59:17;;;;;;;24.17;13.65;;;12.20;99.90;;;;;;6158414;23;20044;-82
2022/10/28 06:01:43;;;;;;;21.42;12.02;;;12.10;99.90;;;;;;6183648;23;20024;-82
2022/10/28 06:04:08;;;;;;;22.05;12.93;;;12.20;99.90;;;;;;6207897;23;20054;-81
2022/10/28 06:06:34;;;;;;;21.27;12.07;;;12.20;99.90;;;;;;6182754;23;20020;-83
2022/10/28 06:09:00;;;;;;;24.83;12.63;;;12.20;99.90;;;;;;6183036;23;20013;-82
2022/10/28 06:11:25;;;;;;;22.90;13.77;;;12.20;99.90;;;;;;6182964;23;20086;-81
2022/10/28 06:13:51;;;;;;;22.48;13.63;;;12.20;99.90;;;;;;6183137;23;20025;-82
2022/10/28 06:16:16;;;;;;;25.02;13.98;;;12.20;99.90;;;;;;6183187;23;20360;-84
2022/10/28 06:18:42;;;;;;;26.75;15.57;;;12.20;99.90;;;;;;6206950;23;20038;-84
2022/10/28 06:21:07;;;;;;;27.38;14.13;;;12.30;99.90;;;;;;6207856;23;20040;-84
2022/10/28 06:23:33;;;;;;;26.25;15.65;;;12.30;99.90;;;;;;6183044;23;20019;-84
2022/10/28 06:26:00;;;;;;;26.50;15.80;;;12.30;99.90;;;;;;6207593;23;20012;-83
2022/10/28 06:28:26;;;;;;;30.25;15.57;;;12.40;99.90;;;;;;6208907;23;20495;-84
2022/10/28 06:30:52;;;;;;;29.58;14.88;;;12.40;99.90;;;;;;6211578;23;20016;-82
2022/10/28 06:33:18;;;;;;;30.05;16.13;;;12.40;99.90;;;;;;6182895;23;20292;-83
2022/10/28 06:35:44;;;;;;;32.35;16.95;;;12.50;99.90;;;;;;6184505;23;20063;-85
2022/10/28 06:38:09;;;;;;;29.98;16.38;;;12.60;99.90;;;;;;6184903;23;20025;-84
2022/10/28 06:40:35;;;;;;;30.90;16.77;;;12.60;99.90;;;;;;6183531;23;20024;-85
2022/10/28 06:43:03;;;;;;;33.47;17.00;;;12.80;99.90;;;;;;6210252;23;20020;-85
2022/10/28 06:45:33;;;;;;;34.80;15.43;;;12.70;99.90;;;;;;6211456;23;20027;-84
2022/10/28 06:48:01;;;;;;;32.50;16.35;;;12.80;99.90;;;;;;6183516;23;20016;-84
2022/10/28 06:50:27;;;;;;;29.10;15.35;;;12.80;99.90;;;;;;6210899;23;20013;-85
2022/10/28 06:52:57;;;;;;;26.80;16.02;;;13.10;99.90;;;;;;6184901;23;20019;-86
2022/10/28 06:55:23;;;;;;;27.15;15.02;;;12.90;99.90;;;;;;6184600;23;20380;-82
2022/10/28 06:57:49;;;;;;;27.70;16.17;;;13.00;99.90;;;;;;6211614;23;20745;-83
2022/10/28 07:00:15;;;;;;;27.95;15.68;;;13.20;99.90;;;;;;6184388;23;20096;-81
2022/10/28 07:02:41;;;;;;;27.05;14.68;;;13.10;99.90;;;;;;6211076;23;20016;-82
2022/10/28 07:05:07;;;;;;;25.77;14.18;;;13.10;99.90;;;;;;6182790;23;20093;-83
2022/10/28 07:07:36;;;;;;;30.27;15.73;;;13.10;99.90;;;;;;6210571;23;20066;-83
2022/10/28 07:10:03;;;;;;;26.25;15.18;;;13.20;99.90;;;;;;6184435;23;20016;-83
2022/10/28 07:12:28;;;;;;;31.67;14.25;;;13.20;99.90;;;;;;6183636;23;20012;-83
2022/10/28 07:14:54;;;;;;;27.00;14.35;;;13.20;99.90;;;;;;6211418;23;20389;-83
2022/10/28 07:17:20;;;;;;;27.33;13.50;;;13.30;99.90;;;;;;6183162;23;20396;-84
2022/10/28 07:19:45;;;;;;;24.25;13.48;;;13.30;99.90;;;;;;6183829;23;20017;-83
2022/10/28 07:22:11;;;;;;;25.23;13.63;;;13.30;99.90;;;;;;6163643;23;20078;-83
2022/10/28 07:24:36;;;;;;;25.73;14.13;;;13.30;99.90;;;;;;6185576;23;20171;-81
2022/10/28 07:27:02;;;;;;;22.13;13.02;;;13.40;99.90;;;;;;6183520;23;20341;-83
2022/10/28 07:29:28;;;;;;;22.33;12.63;;;13.40;99.90;;;;;;6183740;23;20174;-82
2022/10/28 07:31:54;;;;;;;30.30;13.82;;;13.40;99.90;;;;;;6182590;23;20120;-81
2022/10/28 07:34:20;;;;;;;27.60;12.90;;;13.50;99.90;;;;;;6210584;23;20031;-83
2022/10/28 07:36:50;;;;;;;27.33;12.32;;;13.50;99.90;;;;;;6210324;23;20017;-83
2022/10/28 07:39:16;;;;;;;23.92;12.32;;;13.60;99.90;;;;;;6209477;23;20713;-83
2022/10/28 07:41:42;;;;;;;23.83;12.35;;;13.60;99.90;;;;;;6182520;23;20027;-83
2022/10/28 07:44:07;;;;;;;23.13;11.85;;;13.70;99.90;;;;;;6183370;23;20060;-83
2022/10/28 07:46:33;;;;;;;22.20;11.30;;;13.80;99.90;;;;;;6182423;23;20012;-83
2022/10/28 07:48:59;;;;;;;25.33;11.10;;;13.90;99.90;;;;;;6210509;23;20019;-83
2022/10/28 07:51:25;;;;;;;21.33;10.50;;;13.90;99.90;;;;;;6210078;23;20040;-83
2022/10/28 07:53:50;;;;;;;25.48;11.52;;;13.90;99.90;;;;;;6183266;23;20035;-83
2022/10/28 07:56:16;;;;;;;25.60;10.82;;;14.00;99.90;;;;;;6183003;23;20340;-84
2022/10/28 07:58:43;;;;;;;23.08;10.30;;;14.10;99.90;;;;;;6183498;23;20346;-84
2022/10/28 08:01:14;;;;;;;22.90;10.38;;;14.20;99.90;;;;;;6208578;23;20016;-83
2022/10/28 08:03:40;;;;;;;24.88;11.65;;;14.40;99.90;;;;;;6182231;23;20012;-83
2022/10/28 08:06:12;;;;;;;20.00;9.52;;;14.30;99.90;;;;;;6208841;23;20063;-82
2022/10/28 08:08:38;;;;;;;17.95;9.02;;;14.50;99.90;;;;;;6209544;23;20062;-84
2022/10/28 08:11:09;;;;;;;19.95;10.05;;;14.40;99.90;;;;;;6182968;23;20012;-83
2022/10/28 08:13:34;;;;;;;18.73;9.63;;;14.50;99.90;;;;;;6183110;23;20023;-83
2022/10/28 08:16:00;;;;;;;21.15;8.63;;;14.50;99.90;;;;;;6210256;23;20037;-84
2022/10/28 08:18:26;;;;;;;17.77;8.65;;;14.70;99.90;;;;;;6182435;23;20039;-83
2022/10/28 08:20:51;;;;;;;15.82;8.95;;;14.70;99.90;;;;;;6210595;23;20012;-83
2022/10/28 08:23:17;;;;;;;23.90;9.20;;;14.80;99.90;;;;;;6182658;23;20059;-84
2022/10/28 08:25:49;;;;;;;20.25;8.88;;;14.80;99.90;;;;;;6183191;23;20059;-83
2022/10/28 08:28:15;;;;;;;24.60;8.88;;;14.80;99.90;;;;;;6157425;23;20004;-83
2022/10/28 08:30:41;;;;;;;18.00;9.20;;;14.90;99.90;;;;;;6157439;23;20016;-83
2022/10/28 08:33:07;;;;;;;19.50;8.85;;;15.00;99.90;;;;;;6182844;23;20025;-83
2022/10/28 08:35:34;;;;;;;15.07;8.13;;;15.00;99.90;;;;;;6207573;23;20016;-83
2022/10/28 08:37:59;;;;;;;17.42;7.63;;;15.10;99.90;;;;;;6182722;23;20052;-83
2022/10/28 08:40:38;;;;;;;16.25;8.10;;;15.20;99.90;;;;;;6182778;23;20027;-83
2022/10/28 08:43:34;;;;;;;18.25;7.90;;;15.30;99.90;;;;;;6183063;23;20016;-84
2022/10/28 08:46:30;;;;;;;18.13;7.55;;;15.30;99.90;;;;;;6210011;23;20015;-83
2022/10/28 08:48:55;;;;;;;15.15;7.20;;;15.40;99.90;;;;;;6183097;23;20020;-83
2022/10/28 08:51:37;;;;;;;21.08;7.40;;;15.50;99.90;;;;;;6157762;23;20009;-83
2022/10/28 08:54:15;;;;;;;18.02;6.90;;;15.60;99.90;;;;;;6209653;23;20008;-84
2022/10/28 08:56:45;;;;;;;16.80;7.15;;;15.60;99.90;;;;;;6182733;23;20017;-84
2022/10/28 08:59:30;;;;;;;18.58;7.45;;;15.70;99.90;;;;;;6181650;23;20019;-83
2022/10/28 09:01:59;;;;;;;19.30;7.03;;;15.80;99.90;;;;;;6209818;23;20058;-84
2022/10/28 09:04:38;;;;;;;15.13;6.53;;;16.00;99.90;;;;;;6182658;23;20348;-83
2022/10/28 09:07:10;;;;;;;18.95;6.68;;;16.00;99.90;;;;;;6210002;23;20012;-83
2022/10/28 09:09:35;;;;;;;21.67;7.45;;;16.10;99.90;;;;;;6182913;23;20099;-83
2022/10/28 09:12:33;;;;;;;21.20;7.72;;;16.20;99.90;;;;;;6182497;23;20055;-83
2022/10/28 09:15:06;;;;;;;17.10;6.10;;;16.30;99.90;;;;;;6182631;23;20467;-84
2022/10/28 09:17:41;;;;;;;17.30;6.20;;;16.40;99.90;;;;;;6182502;23;20427;-83
2022/10/28 09:20:30;;;;;;;16.42;6.85;;;16.50;99.90;;;;;;6181838;23;20016;-84
2022/10/28 09:22:58;;;;;;;18.52;6.78;;;16.50;99.90;;;;;;6182309;23;20445;-84
2022/10/28 09:25:35;;;;;;;13.90;6.55;;;16.60;99.90;;;;;;6212067;23;20028;-83
2022/10/28 09:28:31;;;;;;;14.43;7.20;;;16.70;99.90;;;;;;6213126;23;20179;-83
2022/10/28 09:31:16;;;;;;;15.60;6.40;;;16.70;99.90;;;;;;6208939;23;20013;-83
2022/10/28 09:33:47;;;;;;;14.38;6.30;;;16.70;99.90;;;;;;6210084;23;20009;-85
2022/10/28 09:36:23;;;;;;;17.55;6.70;;;16.80;99.90;;;;;;6182008;23;20046;-83
2022/10/28 09:38:54;;;;;;;16.90;7.00;;;16.70;99.90;;;;;;6157097;23;20031;-83
2022/10/28 09:41:41;;;;;;;12.52;6.90;;;16.90;99.90;;;;;;6181462;23;20027;-83
2022/10/28 09:44:17;;;;;;;20.00;7.28;;;16.90;99.90;;;;;;6208953;23;20009;-82
2022/10/28 09:46:47;;;;;;;17.65;7.18;;;16.90;99.90;;;;;;6182461;23;20368;-83
2022/10/28 09:49:20;;;;;;;14.55;6.78;;;17.00;99.90;;;;;;6181745;23;20019;-83
2022/10/28 09:52:08;;;;;;;14.07;6.60;;;17.00;99.90;;;;;;6157698;23;20028;-82
2022/10/28 09:54:43;;;;;;;15.63;6.78;;;17.00;99.90;;;;;;6182696;23;20031;-82
2022/10/28 09:57:08;;;;;;;22.30;6.63;;;17.10;99.90;;;;;;6208133;23;20036;-83
2022/10/28 09:59:34;;;;;;;13.40;6.82;;;17.20;99.90;;;;;;6209075;23;20445;-81
2022/10/28 10:02:01;;;;;;;16.42;6.05;;;17.20;99.90;;;;;;6182864;23;20493;-81
2022/10/28 10:04:30;;;;;;;15.68;6.15;;;17.20;99.90;;;;;;6157677;23;20421;-82
2022/10/28 10:07:02;;;;;;;19.00;6.88;;;17.30;99.90;;;;;;6211499;23;20309;-82
2022/10/28 10:09:30;;;;;;;15.55;6.65;;;17.30;99.90;;;;;;6210974;23;20015;-82
2022/10/28 10:12:09;;;;;;;17.63;6.30;;;17.30;99.90;;;;;;6183871;23;20024;-82
2022/10/28 10:14:47;;;;;;;18.98;5.70;;;17.40;99.90;;;;;;6183836;23;20016;-83
2022/10/28 10:17:34;;;;;;;15.18;5.72;;;17.40;99.90;;;;;;6184036;23;20086;-82
2022/10/28 10:20:08;;;;;;;14.35;6.20;;;17.40;99.90;;;;;;6184498;23;20021;-82
2022/10/28 10:22:38;;;;;;;18.85;6.50;;;17.50;99.90;;;;;;6184396;23;20017;-82
2022/10/28 10:25:19;;;;;;;13.35;5.88;;;17.50;99.90;;;;;;6158168;23;20016;-82
2022/10/28 10:28:04;;;;;;;15.50;6.20;;;17.50;99.90;;;;;;6183807;23;20017;-82
2022/10/28 10:30:36;;;;;;;12.48;5.63;;;17.50;99.90;;;;;;6184886;23;20441;-82
2022/10/28 10:33:03;;;;;;;18.40;6.28;;;17.60;99.90;;;;;;6184622;23;20020;-82
2022/10/28 10:35:37;;;;;;;17.45;6.20;;;17.60;99.90;;;;;;6211505;23;20051;-82
2022/10/28 10:38:05;;;;;;;16.33;6.53;;;17.60;99.90;;;;;;6211408;23;20134;-86
2022/10/28 10:40:48;;;;;;;17.77;5.57;;;17.70;99.90;;;;;;6209063;23;20017;-82
2022/10/28 10:43:16;;;;;;;16.45;6.32;;;17.80;99.90;;;;;;6211844;23;20675;-82
2022/10/28 10:45:59;;;;;;;16.15;5.93;;;17.80;99.90;;;;;;6184893;23;20353;-82
2022/10/28 10:48:26;;;;;;;13.40;5.78;;;17.90;99.90;;;;;;6185177;23;20016;-82
2022/10/28 10:50:53;;;;;;;15.05;5.43;;;17.90;99.90;;;;;;6211368;23;20020;-82
2022/10/28 10:53:27;;;;;;;14.32;5.50;;;18.10;99.90;;;;;;6185333;23;20040;-82
2022/10/28 10:55:56;;;;;;;;;;;18.10;99.90;;;;;;6184590;23;20016;-82
2022/10/28 10:58:27;;;;;;;16.20;5.50;;;18.20;99.90;;;;;;6211380;23;19966;-82
2022/10/28 11:00:56;;;;;;;13.45;5.18;;;18.30;99.90;;;;;;6184504;23;20024;-82
2022/10/28 11:03:47;;;;;;;19.77;5.85;;;18.50;99.90;;;;;;6184385;23;20139;-82
2022/10/28 11:06:24;;;;;;;16.48;5.28;;;18.40;99.90;;;;;;6183262;23;20031;-81
2022/10/28 11:09:21;;;;;;;14.38;4.95;;;18.60;99.90;;;;;;6184378;23;20032;-81
2022/10/28 11:11:46;;;;;;;13.70;5.15;;;18.70;99.90;;;;;;6152860;23;20012;-81
2022/10/28 11:14:12;;;;;;;12.35;5.35;;;18.70;99.90;;;;;;6211790;23;20016;-81
2022/10/28 11:16:55;;;;;;;16.20;5.50;;;18.80;99.90;;;;;;6184707;23;20020;-81
2022/10/28 11:19:32;;;;;;;20.92;5.63;;;18.90;99.90;;;;;;6184478;23;20076;-82
2022/10/28 11:22:31;;;;;;;13.50;4.75;;;18.90;99.90;;;;;;6211253;23;20031;-81
2022/10/28 11:25:42;;;;;;;10.60;5.00;;;19.00;99.90;;;;;;6210624;23;20088;-82
2022/10/28 11:28:34;;;;;;;16.85;5.25;;;19.20;99.90;;;;;;6118083;23;20382;-82
2022/10/28 11:31:33;;;;;;;14.93;4.85;;;19.30;99.90;;;;;;6186471;23;20016;-81
2022/10/28 11:34:01;;;;;;;16.08;5.75;;;19.40;99.90;;;;;;6211463;23;20012;-82
2022/10/28 11:36:44;;;;;;;12.50;4.68;;;19.60;99.90;;;;;;6184383;23;20074;-82
2022/10/28 11:39:35;;;;;;;16.90;5.70;;;19.70;99.90;;;;;;6184004;23;20052;-82
2022/10/28 11:42:25;;;;;;;16.08;5.28;;;19.80;99.90;;;;;;6184423;23;20453;-82
2022/10/28 11:45:07;;;;;;;12.35;4.93;;;19.90;99.90;;;;;;6159262;23;20016;-82
2022/10/28 11:47:56;;;;;;;14.38;5.00;;;19.90;99.90;;;;;;6184266;23;20380;-81
2022/10/28 11:51:03;;;;;;;14.75;5.30;;;19.90;99.90;;;;;;6183969;23;20079;-81
2022/10/28 11:53:50;;;;;;;14.85;5.80;;;19.80;99.90;;;;;;6210377;23;20306;-81
2022/10/28 11:56:33;;;;;;;12.55;4.85;;;19.80;99.90;;;;;;6211168;23;20013;-81
2022/10/28 11:59:30;;;;;;;15.38;5.55;;;19.80;99.90;;;;;;6183695;23;20163;-81
2022/10/28 12:02:22;;;;;;;10.70;5.00;;;19.80;99.90;;;;;;6211697;23;20034;-81
2022/10/28 12:05:31;;;;;;;16.60;5.60;;;19.90;99.90;;;;;;6158999;23;20012;-81
2022/10/28 12:08:15;;;;;;;14.10;5.65;;;19.90;99.90;;;;;;6035764;23;20102;-81
2022/10/28 12:11:12;;;;;;;19.27;5.10;;;20.00;99.90;;;;;;6060014;23;20074;-81
2022/10/28 12:14:01;;;;;;;12.95;4.68;;;20.00;99.90;;;;;;6035946;23;20026;-81
2022/10/28 12:16:39;;;;;;;19.10;6.18;;;20.00;99.90;;;;;;6060835;23;20023;-85
2022/10/28 12:19:28;;;;;;;13.38;4.90;;;20.00;99.90;;;;;;6036422;23;20019;-82
2022/10/28 12:22:24;;;;;;;13.07;5.28;;;20.00;99.90;;;;;;6059506;23;20019;-82
2022/10/28 12:24:51;;;;;;;15.50;5.22;;;19.90;99.90;;;;;;6035884;23;20480;-82
2022/10/28 12:27:31;;;;;;;13.80;5.50;;;19.90;99.90;;;;;;6036151;23;20590;-82
2022/10/28 12:30:06;;;;;;;14.25;5.13;;;19.90;99.90;;;;;;6036217;23;20118;-82
2022/10/28 12:32:35;;;;;;;19.75;5.72;;;19.90;99.90;;;;;;6036513;23;20027;-82
2022/10/28 12:35:21;;;;;;;13.82;4.93;;;19.90;99.90;;;;;;6036317;23;20019;-82
2022/10/28 12:38:02;;;;;;;14.95;5.15;;;19.90;99.90;;;;;;6035716;23;20459;-82
2022/10/28 12:40:42;;;;;;;20.85;6.00;;;19.90;99.90;;;;;;6035323;23;20041;-83
2022/10/28 12:43:23;;;;;;;13.60;5.05;;;19.90;99.90;;;;;;6036045;23;20023;-82
2022/10/28 12:45:51;;;;;;;13.60;4.40;;;19.80;99.90;;;;;;6185968;23;20024;-82
2022/10/28 12:48:41;;;;;;;12.35;5.68;;;19.80;99.90;;;;;;6183856;23;20017;-82
2022/10/28 12:51:15;;;;;;;15.25;5.18;;;19.90;99.90;;;;;;6210456;23;20092;-82
2022/10/28 12:53:53;;;;;;;13.88;5.55;;;19.80;99.90;;;;;;6183722;23;20024;-82
2022/10/28 12:56:29;;;;;;;14.35;5.10;;;19.80;99.90;;;;;;6210478;23;20023;-83
2022/10/28 12:59:10;;;;;;;11.93;5.47;;;19.80;99.90;;;;;;6183548;23;20144;-83